createdAt,value
2023-03-29T00:01:35.679Z,2.39
2023-03-29T00:04:04.738Z,2.28
2023-03-29T00:06:33.461Z,2.19
2023-03-29T00:09:01.989Z,2.19
2023-03-29T00:11:29.156Z,2.25
2023-03-29T00:13:56.343Z,2.23
2023-03-29T00:16:23.605Z,1.91
2023-03-29T00:18:50.870Z,2.08
2023-03-29T00:21:18.105Z,1.50
2023-03-29T00:23:45.235Z,1.93
2023-03-29T00:26:12.492Z,1.98
2023-03-29T00:28:39.596Z,1.95
2023-03-29T00:31:10.247Z,1.86
2023-03-29T00:33:37.988Z,1.82
2023-03-29T00:36:06.567Z,1.64
2023-03-29T00:38:33.835Z,1.81
2023-03-29T00:41:01.428Z,1.77
2023-03-29T00:43:28.833Z,1.90
2023-03-29T00:45:56.389Z,1.89
2023-03-29T00:48:30.174Z,1.83
2023-03-29T00:51:04.213Z,1.83
2023-03-29T00:53:38.635Z,1.93
2023-03-29T00:56:24.484Z,1.97
2023-03-29T00:59:03.850Z,1.94
2023-03-29T01:01:45.471Z,1.84
2023-03-29T01:04:21.938Z,1.75
2023-03-29T01:07:25.762Z,1.74
2023-03-29T01:10:12.961Z,1.83
2023-03-29T01:12:50.493Z,1.87
2023-03-29T01:15:22.576Z,1.94
2023-03-29T01:17:53.702Z,1.56
2023-03-29T01:20:43.611Z,1.79
2023-03-29T01:23:29.456Z,1.89
2023-03-29T01:26:38.783Z,1.92
2023-03-29T01:29:34.408Z,1.82
2023-03-29T01:32:13.403Z,1.76
2023-03-29T01:34:58.758Z,1.89
2023-03-29T01:37:53.056Z,1.73
2023-03-29T01:40:20.178Z,1.68
2023-03-29T01:43:21.579Z,1.80
2023-03-29T01:46:01.446Z,1.78
2023-03-29T01:48:51.869Z,1.89
2023-03-29T01:51:28.355Z,1.95
2023-03-29T01:54:17.555Z,1.81
2023-03-29T01:56:49.133Z,1.79
2023-03-29T01:59:22.760Z,1.61
2023-03-29T02:01:54.501Z,1.87
2023-03-29T02:04:29.345Z,1.88
2023-03-29T02:07:00.209Z,1.81
2023-03-29T02:09:28.929Z,1.78
2023-03-29T02:11:59.942Z,1.76
2023-03-29T02:14:27.720Z,1.98
2023-03-29T02:16:54.810Z,1.96
2023-03-29T02:19:25.361Z,2.00
2023-03-29T02:22:10.385Z,1.79
2023-03-29T02:24:40.907Z,2.03
2023-03-29T02:27:08.714Z,2.02
2023-03-29T02:29:36.194Z,1.94
2023-03-29T02:32:08.981Z,1.94
2023-03-29T02:35:13.252Z,2.16
2023-03-29T02:37:45.232Z,2.05
2023-03-29T02:40:15.173Z,2.13
2023-03-29T02:42:45.897Z,2.26
2023-03-29T02:45:16.232Z,2.24
2023-03-29T02:47:49.793Z,2.22
2023-03-29T02:50:17.625Z,2.10
2023-03-29T02:52:53.424Z,2.12
2023-03-29T02:55:23.735Z,2.10
2023-03-29T02:57:50.977Z,2.13
2023-03-29T03:00:23.341Z,2.17
2023-03-29T03:02:51.939Z,2.13
2023-03-29T03:05:19.534Z,1.91
2023-03-29T03:07:47.225Z,2.06
2023-03-29T03:10:14.726Z,2.22
2023-03-29T03:12:42.136Z,2.22
2023-03-29T03:15:09.832Z,2.39
2023-03-29T03:17:41.248Z,2.29
2023-03-29T03:20:13.260Z,2.39
2023-03-29T03:22:49.398Z,2.14
2023-03-29T03:25:19.668Z,2.18
2023-03-29T03:27:48.720Z,2.36
2023-03-29T03:30:18.629Z,1.89
2023-03-29T03:33:04.368Z,2.22
2023-03-29T03:36:06.227Z,2.08
2023-03-29T03:38:36.332Z,1.88
2023-03-29T03:41:05.871Z,1.93
2023-03-29T03:43:35.121Z,1.96
2023-03-29T03:46:02.731Z,1.95
2023-03-29T03:48:30.699Z,1.99
2023-03-29T03:51:27.226Z,1.89
2023-03-29T03:53:54.736Z,1.80
2023-03-29T03:56:34.444Z,1.60
2023-03-29T03:59:07.412Z,1.76
2023-03-29T04:01:58.322Z,1.79
2023-03-29T04:04:26.085Z,1.44
2023-03-29T04:07:18.102Z,1.68
2023-03-29T04:09:57.391Z,1.70
2023-03-29T04:12:40.021Z,1.68
2023-03-29T04:15:09.138Z,1.67
2023-03-29T04:17:37.297Z,1.75
2023-03-29T04:20:33.659Z,1.79
2023-03-29T04:23:01.676Z,1.60
2023-03-29T04:25:29.701Z,1.76
2023-03-29T04:27:59.723Z,1.79
2023-03-29T04:30:52.424Z,1.61
2023-03-29T04:33:40.269Z,1.41
2023-03-29T04:36:09.449Z,1.53
2023-03-29T04:38:36.588Z,1.37
2023-03-29T04:41:05.083Z,1.42
2023-03-29T04:43:53.829Z,1.51
2023-03-29T04:46:26.919Z,1.40
2023-03-29T04:49:12.873Z,1.63
2023-03-29T04:51:43.616Z,1.66
2023-03-29T04:54:11.703Z,1.62
2023-03-29T04:56:55.287Z,1.49
2023-03-29T04:59:48.868Z,1.41
2023-03-29T05:02:34.585Z,1.71
2023-03-29T05:05:02.590Z,1.67
2023-03-29T05:07:30.689Z,1.68
2023-03-29T05:09:58.501Z,1.72
2023-03-29T05:12:26.039Z,1.74
2023-03-29T05:14:54.522Z,1.88
2023-03-29T05:17:27.566Z,1.92
2023-03-29T05:20:01.168Z,1.84
2023-03-29T05:22:29.869Z,1.87
2023-03-29T05:24:57.674Z,2.07
2023-03-29T05:27:25.624Z,2.09
2023-03-29T05:30:02.682Z,1.89
2023-03-29T05:32:38.314Z,2.05
2023-03-29T05:35:07.283Z,2.07
2023-03-29T05:37:35.368Z,1.98
2023-03-29T05:40:10.871Z,2.01
2023-03-29T05:43:02.704Z,2.39
2023-03-29T05:45:30.210Z,2.54
2023-03-29T05:47:58.153Z,2.45
2023-03-29T05:50:25.534Z,2.58
2023-03-29T05:52:53.188Z,2.60
2023-03-29T05:55:20.427Z,2.87
2023-03-29T05:57:47.728Z,2.88
2023-03-29T06:00:25.878Z,2.88
2023-03-29T06:03:17.689Z,2.84
2023-03-29T06:05:49.786Z,3.15
2023-03-29T06:08:17.773Z,3.19
2023-03-29T06:11:17.797Z,3.27
2023-03-29T06:14:03.622Z,3.28
2023-03-29T06:16:32.687Z,3.17
2023-03-29T06:18:59.936Z,3.26
2023-03-29T06:21:29.168Z,3.46
2023-03-29T06:23:56.952Z,3.58
2023-03-29T06:26:27.803Z,3.60
2023-03-29T06:28:55.018Z,3.46
2023-03-29T06:31:22.241Z,3.43
2023-03-29T06:33:51.781Z,3.59
2023-03-29T06:36:32.858Z,3.83
2023-03-29T06:39:00.134Z,3.78
2023-03-29T06:41:47.578Z,3.98
2023-03-29T06:44:49.724Z,4.15
2023-03-29T06:47:19.718Z,3.96
2023-03-29T06:49:46.918Z,4.23
2023-03-29T06:52:29.816Z,4.25
2023-03-29T06:54:57.067Z,4.36
2023-03-29T06:57:25.943Z,4.34
2023-03-29T06:59:54.030Z,4.15
2023-03-29T07:02:24.417Z,4.26
2023-03-29T07:04:56.380Z,4.19
2023-03-29T07:07:53.606Z,4.50
2023-03-29T07:10:47.651Z,4.57
2023-03-29T07:13:53.452Z,4.51
2023-03-29T07:16:21.896Z,4.53
2023-03-29T07:19:15.595Z,4.69
2023-03-29T07:21:53.513Z,4.71
2023-03-29T07:24:23.824Z,4.86
2023-03-29T07:27:03.133Z,4.93
2023-03-29T07:29:32.948Z,5.09
2023-03-29T07:32:00.380Z,4.87
2023-03-29T07:34:55.216Z,4.86
2023-03-29T07:37:28.657Z,4.95
2023-03-29T07:39:57.728Z,5.03
2023-03-29T07:42:46.948Z,5.16
2023-03-29T07:45:26.846Z,5.19
2023-03-29T07:48:08.997Z,4.87
2023-03-29T07:50:49.584Z,5.02
2023-03-29T07:53:19.825Z,5.21
2023-03-29T07:55:48.891Z,5.28
2023-03-29T07:58:46.695Z,5.41
2023-03-29T08:01:18.843Z,5.39
2023-03-29T08:04:10.068Z,5.08
2023-03-29T08:06:55.863Z,5.40
2023-03-29T08:09:29.243Z,5.65
2023-03-29T08:11:57.818Z,5.56
2023-03-29T08:14:31.794Z,5.68
2023-03-29T08:17:04.904Z,4.79
2023-03-29T08:19:35.974Z,5.84
2023-03-29T08:22:05.563Z,5.87
2023-03-29T08:25:07.025Z,6.11
2023-03-29T08:27:39.842Z,6.26
2023-03-29T08:30:10.496Z,6.25
2023-03-29T08:32:39.429Z,5.57
2023-03-29T08:35:09.712Z,6.25
2023-03-29T08:37:55.622Z,6.35
2023-03-29T08:40:27.366Z,6.22
2023-03-29T08:43:46.584Z,6.31
2023-03-29T08:46:33.113Z,6.48
2023-03-29T08:49:13.167Z,6.59
2023-03-29T08:51:46.561Z,6.53
2023-03-29T08:54:34.057Z,6.57
2023-03-29T08:57:17.928Z,6.39
2023-03-29T08:59:52.994Z,6.28
2023-03-29T09:02:24.872Z,6.61
2023-03-29T09:05:02.940Z,6.59
2023-03-29T09:07:42.220Z,6.81
2023-03-29T09:10:16.064Z,6.92
2023-03-29T09:12:52.896Z,6.97
2023-03-29T09:15:34.841Z,7.09
2023-03-29T09:18:43.912Z,7.08
2023-03-29T09:21:52.983Z,6.93
2023-03-29T09:24:58.197Z,7.24
2023-03-29T09:27:44.380Z,7.07
2023-03-29T09:30:28.682Z,7.12
2023-03-29T09:33:12.307Z,7.06
2023-03-29T09:36:10.622Z,7.23
2023-03-29T09:38:42.726Z,7.27
2023-03-29T09:41:22.008Z,7.38
2023-03-29T09:43:52.347Z,7.60
2023-03-29T09:46:30.471Z,7.57
2023-03-29T09:48:58.031Z,7.82
2023-03-29T09:51:28.033Z,7.70
2023-03-29T09:53:57.511Z,7.37
2023-03-29T09:56:36.816Z,7.45
2023-03-29T09:59:12.636Z,7.71
2023-03-29T10:01:45.337Z,7.89
2023-03-29T10:04:16.942Z,7.98
2023-03-29T10:06:52.441Z,8.12
2023-03-29T10:09:22.868Z,8.05
2023-03-29T10:12:02.349Z,8.07
2023-03-29T10:14:42.690Z,8.18
2023-03-29T10:17:24.822Z,8.21
2023-03-29T10:20:18.810Z,7.74
2023-03-29T10:22:48.406Z,8.33
2023-03-29T10:25:18.435Z,8.20
2023-03-29T10:27:48.074Z,8.51
2023-03-29T10:30:24.382Z,8.58
2023-03-29T10:32:58.164Z,8.43
2023-03-29T10:35:51.841Z,8.51
2023-03-29T10:38:23.075Z,8.45
2023-03-29T10:40:53.249Z,8.50
2023-03-29T10:43:23.255Z,8.50
2023-03-29T10:45:52.622Z,8.92
2023-03-29T10:48:26.088Z,8.95
2023-03-29T10:50:53.373Z,9.04
2023-03-29T10:53:29.424Z,9.07
2023-03-29T10:56:16.458Z,9.26
2023-03-29T10:59:11.486Z,9.28
2023-03-29T11:01:51.694Z,8.96
2023-03-29T11:04:29.617Z,8.98
2023-03-29T11:07:15.678Z,9.18
2023-03-29T11:09:52.805Z,9.34
2023-03-29T11:12:32.174Z,9.29
2023-03-29T11:15:27.363Z,9.38
2023-03-29T11:18:23.066Z,9.37
2023-03-29T11:21:15.337Z,9.29
2023-03-29T11:24:18.403Z,9.45
2023-03-29T11:27:11.949Z,9.22
2023-03-29T11:30:00.506Z,9.37
2023-03-29T11:32:38.723Z,9.37
2023-03-29T11:35:31.793Z,9.37
2023-03-29T11:38:16.070Z,9.48
2023-03-29T11:40:55.294Z,9.38
2023-03-29T11:43:41.580Z,9.56
2023-03-29T11:46:13.997Z,9.71
2023-03-29T11:48:57.058Z,9.51
2023-03-29T11:51:27.134Z,9.54
2023-03-29T11:54:03.703Z,9.49
2023-03-29T11:56:41.404Z,9.78
2023-03-29T11:59:41.099Z,9.72
2023-03-29T12:02:36.814Z,9.82
2023-03-29T12:05:13.911Z,9.30
2023-03-29T12:08:05.691Z,9.62
2023-03-29T12:10:42.094Z,9.72
2023-03-29T12:13:21.299Z,9.40
2023-03-29T12:16:00.438Z,9.81
2023-03-29T12:18:33.011Z,9.78
2023-03-29T12:21:04.056Z,9.80
2023-03-29T12:23:34.196Z,9.96
2023-03-29T12:26:17.301Z,10.06
2023-03-29T12:29:07.240Z,10.01
2023-03-29T12:31:37.386Z,9.99
2023-03-29T12:34:37.110Z,10.02
2023-03-29T12:37:47.086Z,10.15
2023-03-29T12:40:44.210Z,10.17
2023-03-29T12:43:37.774Z,10.31
2023-03-29T12:46:27.009Z,10.31
2023-03-29T12:49:05.956Z,10.41
2023-03-29T12:51:35.299Z,10.03
2023-03-29T12:54:31.211Z,10.26
2023-03-29T12:57:18.864Z,10.55
2023-03-29T12:59:49.182Z,10.54
2023-03-29T13:02:17.873Z,10.65
2023-03-29T13:04:56.106Z,10.81
2023-03-29T13:07:23.219Z,10.65
2023-03-29T13:09:52.992Z,10.70
2023-03-29T13:12:30.243Z,11.05
2023-03-29T13:15:02.542Z,10.39
2023-03-29T13:17:45.239Z,10.45
2023-03-29T13:20:37.631Z,10.72
2023-03-29T13:23:42.498Z,10.79
2023-03-29T13:26:45.828Z,11.12
2023-03-29T13:29:51.429Z,10.89
2023-03-29T13:32:54.060Z,10.75
2023-03-29T13:35:34.337Z,11.27
2023-03-29T13:38:26.371Z,11.23
2023-03-29T13:40:53.512Z,11.25
2023-03-29T13:43:31.560Z,11.34
2023-03-29T13:45:58.691Z,11.28
2023-03-29T13:48:29.743Z,11.17
2023-03-29T13:51:01.208Z,11.18
2023-03-29T13:53:37.420Z,11.20
2023-03-29T13:56:08.531Z,11.21
2023-03-29T13:58:45.013Z,11.26
2023-03-29T14:01:19.914Z,11.51
2023-03-29T14:03:51.968Z,11.53
2023-03-29T14:06:32.494Z,11.34
2023-03-29T14:09:06.480Z,11.14
2023-03-29T14:11:33.982Z,11.30
2023-03-29T14:14:05.235Z,11.29
2023-03-29T14:16:36.999Z,11.12
2023-03-29T14:19:11.964Z,10.96
2023-03-29T14:21:41.470Z,10.97
2023-03-29T14:24:12.978Z,10.50
2023-03-29T14:26:44.962Z,10.40
2023-03-29T14:29:12.309Z,10.09
2023-03-29T14:31:42.157Z,10.37
2023-03-29T14:34:18.589Z,10.25
2023-03-29T14:36:49.084Z,10.34
2023-03-29T14:39:21.193Z,10.32
2023-03-29T14:41:53.381Z,9.88
2023-03-29T14:44:22.642Z,10.29
2023-03-29T14:46:50.063Z,10.00
2023-03-29T14:49:19.957Z,10.13
2023-03-29T14:51:48.305Z,9.98
2023-03-29T14:54:32.017Z,10.07
2023-03-29T14:57:03.728Z,10.16
2023-03-29T14:59:41.470Z,9.89
2023-03-29T15:02:27.220Z,10.19
2023-03-29T15:05:05.325Z,10.17
2023-03-29T15:07:34.803Z,10.26
2023-03-29T15:10:05.280Z,10.19
2023-03-29T15:12:33.984Z,10.28
2023-03-29T15:15:02.783Z,10.37
2023-03-29T15:17:51.009Z,10.41
2023-03-29T15:20:23.434Z,10.50
2023-03-29T15:23:04.183Z,10.02
2023-03-29T15:25:38.307Z,10.31
2023-03-29T15:28:06.427Z,10.52
2023-03-29T15:30:46.262Z,10.46
2023-03-29T15:33:20.516Z,10.53
2023-03-29T15:35:52.011Z,10.67
2023-03-29T15:38:27.484Z,10.40
2023-03-29T15:41:01.615Z,10.57
2023-03-29T15:43:29.110Z,10.51
2023-03-29T15:45:57.044Z,10.33
2023-03-29T15:48:28.575Z,10.54
2023-03-29T15:50:57.185Z,10.53
2023-03-29T15:53:25.549Z,10.26
2023-03-29T15:55:55.103Z,10.43
2023-03-29T15:58:29.334Z,10.36
2023-03-29T16:01:19.415Z,10.18
2023-03-29T16:03:48.026Z,10.39
2023-03-29T16:06:17.721Z,10.31
2023-03-29T16:08:45.005Z,10.13
2023-03-29T16:11:12.296Z,10.07
2023-03-29T16:13:39.555Z,9.86
2023-03-29T16:16:07.872Z,9.94
2023-03-29T16:18:36.041Z,9.73
2023-03-29T16:21:03.841Z,9.73
2023-03-29T16:23:31.206Z,9.83
2023-03-29T16:25:59.436Z,9.87
2023-03-29T16:28:26.562Z,9.74
2023-03-29T16:30:53.654Z,9.38
2023-03-29T16:33:21.186Z,9.60
2023-03-29T16:35:48.352Z,9.63
2023-03-29T16:38:15.621Z,9.49
2023-03-29T16:40:42.939Z,9.48
2023-03-29T16:43:16.268Z,9.45
2023-03-29T16:45:43.793Z,9.59
2023-03-29T16:48:18.179Z,9.61
2023-03-29T16:50:49.595Z,9.46
2023-03-29T16:53:18.611Z,9.40
2023-03-29T16:55:46.902Z,9.43
2023-03-29T16:58:15.514Z,9.55
2023-03-29T17:00:46.341Z,9.42
2023-03-29T17:03:16.437Z,9.31
2023-03-29T17:05:54.070Z,9.12
2023-03-29T17:08:22.212Z,9.08
2023-03-29T17:10:54.110Z,9.15
2023-03-29T17:13:24.047Z,8.96
2023-03-29T17:15:52.614Z,9.00
2023-03-29T17:18:21.222Z,9.14
2023-03-29T17:20:50.972Z,8.90
2023-03-29T17:23:18.237Z,9.00
2023-03-29T17:25:45.646Z,8.76
2023-03-29T17:28:12.938Z,8.78
2023-03-29T17:30:40.434Z,8.76
2023-03-29T17:33:08.308Z,8.68
2023-03-29T17:35:35.775Z,8.75
2023-03-29T17:38:03.028Z,8.45
2023-03-29T17:40:30.255Z,8.15
2023-03-29T17:42:57.742Z,8.41
2023-03-29T17:45:24.921Z,8.35
2023-03-29T17:47:52.099Z,8.17
2023-03-29T17:50:19.312Z,8.17
2023-03-29T17:52:46.611Z,7.91
2023-03-29T17:55:13.906Z,7.79
2023-03-29T17:57:42.417Z,7.98
2023-03-29T18:00:14.537Z,7.27
2023-03-29T18:02:44.777Z,7.67
2023-03-29T18:05:12.238Z,7.83
2023-03-29T18:07:39.492Z,7.54
2023-03-29T18:10:08.313Z,7.68
2023-03-29T18:12:36.358Z,7.44
2023-03-29T18:15:03.843Z,7.50
2023-03-29T18:17:31.792Z,7.30
2023-03-29T18:22:26.188Z,7.26
2023-03-29T18:24:55.050Z,7.16
2023-03-29T18:27:22.189Z,7.42
2023-03-29T18:29:49.379Z,7.33
2023-03-29T18:32:16.636Z,7.30
2023-03-29T18:34:43.972Z,7.29
2023-03-29T18:37:15.052Z,7.28
2023-03-29T18:39:42.965Z,7.19
2023-03-29T18:42:12.267Z,7.28
2023-03-29T18:44:43.383Z,6.62
2023-03-29T18:47:10.741Z,7.11
2023-03-29T18:49:37.926Z,7.13
2023-03-29T18:52:05.963Z,6.62
2023-03-29T18:54:33.102Z,6.98
2023-03-29T18:57:00.839Z,6.94
2023-03-29T18:59:28.107Z,6.73
2023-03-29T19:01:55.883Z,6.76
2023-03-29T19:04:25.065Z,6.71
2023-03-29T19:06:54.255Z,6.72
2023-03-29T19:09:21.629Z,6.73
2023-03-29T19:11:48.981Z,6.59
2023-03-29T19:14:17.494Z,6.47
2023-03-29T19:16:44.564Z,6.48
2023-03-29T19:19:12.907Z,6.66
2023-03-29T19:21:41.396Z,6.58
2023-03-29T19:24:08.867Z,6.69
2023-03-29T19:26:36.101Z,6.17
2023-03-29T19:29:03.519Z,6.64
2023-03-29T19:31:31.916Z,6.33
2023-03-29T19:33:59.574Z,6.63
2023-03-29T19:36:26.601Z,6.65
2023-03-29T19:38:54.302Z,6.56
2023-03-29T19:41:22.241Z,6.68
2023-03-29T19:43:49.327Z,6.66
2023-03-29T19:46:16.616Z,6.12
2023-03-29T19:48:43.829Z,6.68
2023-03-29T19:51:10.983Z,6.64
2023-03-29T19:53:39.136Z,6.83
2023-03-29T19:56:07.921Z,6.86
2023-03-29T19:58:35.110Z,6.68
2023-03-29T20:01:02.616Z,6.59
2023-03-29T20:03:30.019Z,6.73
2023-03-29T20:05:57.509Z,6.68
2023-03-29T20:08:27.354Z,6.76
2023-03-29T20:11:03.743Z,6.95
2023-03-29T20:13:38.188Z,7.07
2023-03-29T20:16:08.134Z,7.12
2023-03-29T20:18:38.395Z,6.78
2023-03-29T20:21:09.428Z,6.66
2023-03-29T20:23:36.699Z,7.12
2023-03-29T20:26:03.902Z,7.06
2023-03-29T20:28:31.634Z,6.88
2023-03-29T20:31:03.747Z,6.86
2023-03-29T20:33:31.099Z,6.55
2023-03-29T20:35:58.517Z,6.89
2023-03-29T20:38:26.083Z,6.63
2023-03-29T20:40:53.780Z,6.74
2023-03-29T20:43:21.196Z,6.61
2023-03-29T20:45:53.825Z,6.60
2023-03-29T20:48:24.410Z,6.65
2023-03-29T20:50:51.894Z,6.65
2023-03-29T20:53:20.715Z,6.37
2023-03-29T20:55:48.302Z,6.61
2023-03-29T20:58:16.002Z,6.48
2023-03-29T21:00:43.993Z,6.33
2023-03-29T21:03:11.643Z,6.15
2023-03-29T21:05:39.061Z,6.54
2023-03-29T21:08:06.410Z,6.44
2023-03-29T21:10:33.549Z,6.45
2023-03-29T21:13:02.873Z,6.48
2023-03-29T21:15:31.098Z,6.61
2023-03-29T21:17:58.782Z,6.54
2023-03-29T21:20:26.077Z,6.43
2023-03-29T21:22:53.207Z,6.51
2023-03-29T21:25:20.437Z,6.57
2023-03-29T21:27:47.606Z,6.78
2023-03-29T21:30:14.843Z,6.71
2023-03-29T21:32:42.088Z,6.68
2023-03-29T21:35:09.912Z,6.06
2023-03-29T21:37:37.058Z,5.45
2023-03-29T21:40:10.533Z,5.73
2023-03-29T21:42:37.823Z,5.90
2023-03-29T21:45:05.461Z,5.89
2023-03-29T21:47:32.653Z,5.87
2023-03-29T21:49:59.823Z,6.26
2023-03-29T21:52:26.945Z,6.18
2023-03-29T21:54:53.945Z,5.88
2023-03-29T21:57:21.304Z,6.21
2023-03-29T21:59:48.564Z,6.04
2023-03-29T22:02:15.689Z,6.23
2023-03-29T22:04:42.960Z,6.17
2023-03-29T22:07:10.835Z,6.38
2023-03-29T22:09:41.382Z,6.41
2023-03-29T22:12:10.111Z,6.50
2023-03-29T22:14:37.425Z,6.55
2023-03-29T22:17:08.502Z,6.52
2023-03-29T22:19:39.802Z,6.28
2023-03-29T22:22:13.700Z,6.32
2023-03-29T22:24:42.369Z,6.34
2023-03-29T22:27:11.239Z,6.37
2023-03-29T22:29:38.353Z,6.15
2023-03-29T22:32:06.004Z,6.03
2023-03-29T22:34:33.539Z,5.83
2023-03-29T22:37:00.593Z,5.97
2023-03-29T22:39:27.639Z,5.98
2023-03-29T22:41:54.805Z,6.10
2023-03-29T22:44:22.374Z,6.06
2023-03-29T22:46:49.766Z,6.27
2023-03-29T22:49:16.885Z,5.89
2023-03-29T22:51:44.022Z,6.14
2023-03-29T22:54:11.531Z,5.44
2023-03-29T22:56:38.625Z,6.13
2023-03-29T22:59:05.748Z,6.28
2023-03-29T23:01:32.976Z,6.37
2023-03-29T23:04:00.289Z,6.41
2023-03-29T23:06:27.573Z,6.25
2023-03-29T23:08:54.731Z,6.05
2023-03-29T23:11:21.903Z,6.35
2023-03-29T23:13:49.127Z,6.11
2023-03-29T23:16:16.629Z,6.03
2023-03-29T23:18:43.887Z,6.05
2023-03-29T23:21:11.010Z,5.92
2023-03-29T23:23:38.996Z,5.74
2023-03-29T23:26:08.493Z,5.57
2023-03-29T23:28:35.777Z,5.63
2023-03-29T23:31:06.421Z,5.74
2023-03-29T23:33:35.932Z,5.63
2023-03-29T23:36:06.110Z,5.72
2023-03-29T23:38:35.589Z,5.67
2023-03-29T23:41:05.885Z,5.86
2023-03-29T23:43:35.468Z,5.85
2023-03-29T23:46:04.625Z,6.12
2023-03-29T23:48:32.786Z,6.24
2023-03-29T23:51:01.311Z,6.40
2023-03-29T23:53:29.566Z,6.28
2023-03-29T23:56:01.592Z,6.43
2023-03-29T23:58:29.962Z,6.67
